createdAt,value
2023-01-09T00:01:24.955Z,98977.02
2023-01-09T00:03:29.324Z,98967.61
2023-01-09T00:05:33.844Z,98969.43
2023-01-09T00:07:38.291Z,98966.6
2023-01-09T00:09:42.628Z,98967.48
2023-01-09T00:11:47.091Z,98972.66
2023-01-09T00:13:51.434Z,98975.12
2023-01-09T00:15:55.781Z,98975.8
2023-01-09T00:18:00.157Z,98969.42
2023-01-09T00:20:04.519Z,98968.33
2023-01-09T00:22:08.981Z,98960.98
2023-01-09T00:24:13.314Z,98966.28
2023-01-09T00:26:17.731Z,98972.2
2023-01-09T00:28:22.118Z,98967.13
2023-01-09T00:30:26.574Z,98971.4
2023-01-09T00:32:31.021Z,98974.64
2023-01-09T00:34:35.469Z,98966.77
2023-01-09T00:36:39.781Z,98969.22
2023-01-09T00:38:44.194Z,98967.4
2023-01-09T00:40:48.554Z,98967.61
2023-01-09T00:42:52.923Z,98965.56
2023-01-09T00:44:57.265Z,98963.67
2023-01-09T00:47:01.724Z,98962.77
2023-01-09T00:49:06.078Z,98957.42
2023-01-09T00:51:10.390Z,98955.42
2023-01-09T00:53:14.750Z,98949.61
2023-01-09T00:55:19.159Z,98945.92
2023-01-09T00:57:23.501Z,98951.91
2023-01-09T00:59:27.796Z,98953.61
2023-01-09T01:01:32.534Z,98953.55
2023-01-09T01:03:37.030Z,98947.97
2023-01-09T01:05:41.369Z,98950.58
2023-01-09T01:07:45.716Z,98957.77
2023-01-09T01:09:50.115Z,98954.34
2023-01-09T01:11:54.467Z,98955.24
2023-01-09T01:13:58.794Z,98960.95
2023-01-09T01:16:03.374Z,98960.53
2023-01-09T01:18:07.707Z,98959.55
2023-01-09T01:20:12.108Z,98957.38
2023-01-09T01:22:16.485Z,98959.3
2023-01-09T01:24:20.887Z,98959.13
2023-01-09T01:26:25.216Z,98964.09
2023-01-09T01:28:29.610Z,98962.69
2023-01-09T01:30:34.010Z,98958.47
2023-01-09T01:32:38.419Z,98957.27
2023-01-09T01:34:42.831Z,98950.88
2023-01-09T01:36:47.269Z,98952.53
2023-01-09T01:38:51.631Z,98950.01
2023-01-09T01:40:55.954Z,98943.91
2023-01-09T01:43:00.383Z,98937.72
2023-01-09T01:45:04.798Z,98934.7
2023-01-09T01:47:09.138Z,98929.16
2023-01-09T01:49:13.494Z,98924.56
2023-01-09T01:51:17.948Z,98918.86
2023-01-09T01:53:22.316Z,98914.93
2023-01-09T01:55:26.698Z,98906.66
2023-01-09T01:57:31.110Z,98902.61
2023-01-09T01:59:35.484Z,98902.72
2023-01-09T02:01:40.158Z,98897.66
2023-01-09T02:03:44.915Z,98889.84
2023-01-09T02:05:49.302Z,98884.54
2023-01-09T02:07:53.655Z,98883.05
2023-01-09T02:09:58.018Z,98875.23
2023-01-09T02:12:02.347Z,98872.38
2023-01-09T02:14:06.744Z,98866.41
2023-01-09T02:16:11.258Z,98869.08
2023-01-09T02:18:15.733Z,98865.92
2023-01-09T02:20:20.074Z,98862.45
2023-01-09T02:22:24.418Z,98857.38
2023-01-09T02:24:28.744Z,98856.52
2023-01-09T02:26:33.135Z,98852.47
2023-01-09T02:28:37.466Z,98852.88
2023-01-09T02:30:41.898Z,98845.94
2023-01-09T02:32:46.276Z,98838.75
2023-01-09T02:34:50.646Z,98838.58
2023-01-09T02:36:55.021Z,98829.86
2023-01-09T02:38:59.355Z,98827.13
2023-01-09T02:41:03.696Z,98820.17
2023-01-09T02:43:08.042Z,98812.81
2023-01-09T02:45:12.398Z,98812.09
2023-01-09T02:47:16.816Z,98804.98
2023-01-09T02:49:21.165Z,98805.78
2023-01-09T02:51:25.496Z,98797.19
2023-01-09T02:53:29.859Z,98795.45
2023-01-09T02:55:34.275Z,98795.97
2023-01-09T02:57:38.631Z,98792.09
2023-01-09T02:59:43.024Z,98791.68
2023-01-09T03:01:47.837Z,98791.05
2023-01-09T03:03:52.416Z,98786.59
2023-01-09T03:05:56.747Z,98786.08
2023-01-09T03:10:01.435Z,98789.72
2023-01-09T03:12:05.730Z,98789.88
2023-01-09T03:14:10.069Z,98791.84
2023-01-09T03:16:14.532Z,98794.8
2023-01-09T03:18:18.947Z,98793.25
2023-01-09T03:20:23.313Z,98799.9
2023-01-09T03:22:27.650Z,98800.59
2023-01-09T03:24:31.991Z,98795.46
2023-01-09T03:26:36.317Z,98797.23
2023-01-09T03:28:40.648Z,98790.72
2023-01-09T03:30:45.028Z,98789.52
2023-01-09T03:32:49.362Z,98784.91
2023-01-09T03:34:53.718Z,98776.98
2023-01-09T03:36:58.084Z,98773.67
2023-01-09T03:39:02.518Z,98770.08
2023-01-09T03:41:06.868Z,98765.38
2023-01-09T03:43:11.190Z,98765.7
2023-01-09T03:45:15.699Z,98759.22
2023-01-09T03:47:20.036Z,98757.86
2023-01-09T03:49:24.423Z,98755.3
2023-01-09T03:51:28.743Z,98750.33
2023-01-09T03:53:33.073Z,98747.22
2023-01-09T03:55:37.423Z,98743
2023-01-09T03:57:41.828Z,98736.8
2023-01-09T03:59:46.208Z,98734.05
2023-01-09T04:01:50.951Z,98722.09
2023-01-09T04:03:55.752Z,98723.07
2023-01-09T04:06:02.038Z,98728.7
2023-01-09T04:08:06.433Z,98722.8
2023-01-09T04:10:10.781Z,98720.97
2023-01-09T04:12:15.220Z,98722.83
2023-01-09T04:14:19.540Z,98720.16
2023-01-09T04:16:23.964Z,98714.23
2023-01-09T04:18:28.423Z,98723.8
2023-01-09T04:20:32.989Z,98726.54
2023-01-09T04:22:37.413Z,98722.32
2023-01-09T04:24:41.744Z,98722.44
2023-01-09T04:26:46.060Z,98718.56
2023-01-09T04:28:50.453Z,98720.95
2023-01-09T04:30:54.790Z,98716.56
2023-01-09T04:32:59.266Z,98712.77
2023-01-09T04:35:03.635Z,98713.77
2023-01-09T04:37:07.973Z,98711.63
2023-01-09T04:39:12.431Z,98704.69
2023-01-09T04:41:16.831Z,98701.31
2023-01-09T04:43:21.179Z,98698.7
2023-01-09T04:45:25.528Z,98697.91
2023-01-09T04:47:29.882Z,98695.17
2023-01-09T04:49:34.242Z,98691.34
2023-01-09T04:51:38.572Z,98689.01
2023-01-09T04:53:42.992Z,98690.94
2023-01-09T04:55:47.349Z,98682.79
2023-01-09T04:57:51.816Z,98688.42
2023-01-09T04:59:56.259Z,98689.33
2023-01-09T05:02:01.035Z,98685.12
2023-01-09T05:04:05.958Z,98688.76
2023-01-09T05:06:10.827Z,98690.69
2023-01-09T05:08:15.196Z,98688.59
2023-01-09T05:10:19.591Z,98686.92
2023-01-09T05:12:23.958Z,98691.31
2023-01-09T05:14:28.316Z,98686.72
2023-01-09T05:16:32.755Z,98684.24
2023-01-09T05:18:37.150Z,98684.48
2023-01-09T05:20:41.466Z,98680.2
2023-01-09T05:22:46.853Z,98671.91
2023-01-09T05:24:51.223Z,98674.52
2023-01-09T05:26:55.597Z,98680.44
2023-01-09T05:28:59.905Z,98678.42
2023-01-09T05:31:04.315Z,98678.53
2023-01-09T05:33:08.681Z,98668.8
2023-01-09T05:35:13.032Z,98667.83
2023-01-09T05:37:17.397Z,98667.59
2023-01-09T05:39:21.817Z,98658.32
2023-01-09T05:41:26.158Z,98660.88
2023-01-09T05:43:30.459Z,98659.92
2023-01-09T05:45:34.941Z,98661.08
2023-01-09T05:47:39.422Z,98668.98
2023-01-09T05:49:43.802Z,98668.14
2023-01-09T05:51:48.136Z,98659.43
2023-01-09T05:53:52.483Z,98671.03
2023-01-09T05:55:56.848Z,98661.29
2023-01-09T05:58:01.182Z,98666.06
2023-01-09T06:00:05.713Z,98669.19
2023-01-09T06:02:10.324Z,98660.38
2023-01-09T06:04:15.057Z,98652.86
2023-01-09T06:06:19.445Z,98655.03
2023-01-09T06:08:23.840Z,98653.88
2023-01-09T06:10:28.178Z,98647.63
2023-01-09T06:12:32.599Z,98645.55
2023-01-09T06:14:36.946Z,98644.8
2023-01-09T06:16:41.293Z,98640.03
2023-01-09T06:18:45.662Z,98635.19
2023-01-09T06:20:50.017Z,98630.56
2023-01-09T06:22:54.437Z,98629.66
2023-01-09T06:24:58.818Z,98626.02
2023-01-09T06:27:03.140Z,98623.91
2023-01-09T06:29:07.520Z,98618.91
2023-01-09T06:31:12.088Z,98618.69
2023-01-09T06:33:16.600Z,98615.33
2023-01-09T06:35:21.081Z,98621.25
2023-01-09T06:37:25.434Z,98625.55
2023-01-09T06:39:29.755Z,98624.41
2023-01-09T06:41:34.107Z,98625.82
2023-01-09T06:43:38.476Z,98627.47
2023-01-09T06:45:42.837Z,98622.68
2023-01-09T06:47:47.196Z,98618.7
2023-01-09T06:49:51.567Z,98618.24
2023-01-09T06:51:55.955Z,98617.39
2023-01-09T06:54:00.297Z,98612.45
2023-01-09T06:56:04.683Z,98610.57
2023-01-09T06:58:09.022Z,98610.52
2023-01-09T07:00:13.408Z,98610.22
2023-01-09T07:02:18.045Z,98604.66
2023-01-09T07:04:22.539Z,98603.45
2023-01-09T07:06:27.055Z,98607.92
2023-01-09T07:08:31.416Z,98603.66
2023-01-09T07:10:35.921Z,98607.47
2023-01-09T07:12:40.232Z,98618.27
2023-01-09T07:14:44.639Z,98623.78
2023-01-09T07:16:49.077Z,98625.98
2023-01-09T07:18:53.477Z,98624.13
2023-01-09T07:20:57.907Z,98620.65
2023-01-09T07:23:02.337Z,98623.95
2023-01-09T07:25:06.708Z,98620.83
2023-01-09T07:27:11.041Z,98617
2023-01-09T07:29:15.449Z,98620.08
2023-01-09T07:31:19.956Z,98617.97
2023-01-09T07:33:24.380Z,98618.65
2023-01-09T07:35:28.839Z,98619.27
2023-01-09T07:37:33.176Z,98620.87
2023-01-09T07:39:37.553Z,98614.91
2023-01-09T07:41:41.928Z,98616.84
2023-01-09T07:43:46.280Z,98612.87
2023-01-09T07:45:50.713Z,98609.45
2023-01-09T07:47:55.117Z,98614
2023-01-09T07:49:59.416Z,98612.73
2023-01-09T07:52:03.685Z,98613.66
2023-01-09T07:54:07.961Z,98617.11
2023-01-09T07:56:12.225Z,98612.57
2023-01-09T07:58:16.576Z,98615.26
2023-01-09T08:00:20.946Z,98611.16
2023-01-09T08:02:25.594Z,98610.93
2023-01-09T08:04:30.107Z,98605.82
2023-01-09T08:06:34.453Z,98607.73
2023-01-09T08:08:38.780Z,98606.27
2023-01-09T08:10:43.281Z,98612.17
2023-01-09T08:12:47.885Z,98612.06
2023-01-09T08:14:52.434Z,98614.38
2023-01-09T08:16:56.813Z,98619.39
2023-01-09T08:19:01.180Z,98615.69
2023-01-09T08:21:05.512Z,98607.39
2023-01-09T08:23:09.983Z,98608.06
2023-01-09T08:25:14.387Z,98604.53
2023-01-09T08:27:18.782Z,98602.98
2023-01-09T08:29:23.178Z,98605.75
2023-01-09T08:31:27.693Z,98608.77
2023-01-09T08:33:32.072Z,98609.28
2023-01-09T08:35:36.591Z,98612.52
2023-01-09T08:37:40.955Z,98612.52
2023-01-09T08:39:46.542Z,98608.77
2023-01-09T08:41:52.295Z,98611.27
2023-01-09T08:43:56.687Z,98607.05
2023-01-09T08:46:03.952Z,98608.85
2023-01-09T08:48:08.469Z,98598.17
2023-01-09T08:50:12.975Z,98598.17
2023-01-09T08:52:17.330Z,98592.45
2023-01-09T08:54:21.689Z,98588.73
2023-01-09T08:56:26.105Z,98587.03
2023-01-09T08:58:30.539Z,98585.5
2023-01-09T09:00:34.925Z,98589.48
2023-01-09T09:02:39.509Z,98591.14
2023-01-09T09:04:43.975Z,98588.05
2023-01-09T09:06:48.330Z,98590.33
2023-01-09T09:08:52.731Z,98599.66
2023-01-09T09:10:57.086Z,98602.45
2023-01-09T09:13:01.458Z,98609.05
2023-01-09T09:15:06.118Z,98609.51
2023-01-09T09:17:10.493Z,98607.52
2023-01-09T09:19:14.861Z,98603.19
2023-01-09T09:21:19.367Z,98607.69
2023-01-09T09:23:23.925Z,98602.2
2023-01-09T09:25:28.320Z,98606.78
2023-01-09T09:27:32.782Z,98611.33
2023-01-09T09:29:37.119Z,98605.47
2023-01-09T09:31:41.626Z,98612.23
2023-01-09T09:33:46.103Z,98613.87
2023-01-09T09:35:50.469Z,98612.81
2023-01-09T09:37:54.974Z,98613.53
2023-01-09T09:40:17.362Z,98613.7
2023-01-09T09:42:22.733Z,98611.32
2023-01-09T09:44:27.156Z,98612.01
2023-01-09T09:46:31.724Z,98611.22
2023-01-09T09:48:36.235Z,98610.87
2023-01-09T09:50:40.631Z,98611.25
2023-01-09T09:52:44.973Z,98609.1
2023-01-09T09:54:49.311Z,98610.97
2023-01-09T09:56:53.677Z,98611.29
2023-01-09T09:58:58.037Z,98608.84
2023-01-09T10:01:02.391Z,98608.74
2023-01-09T10:03:06.862Z,98610.73
2023-01-09T10:05:11.259Z,98609.67
2023-01-09T10:07:15.632Z,98602.95
2023-01-09T10:09:20.018Z,98605.36
2023-01-09T10:11:24.563Z,98604.03
2023-01-09T10:13:33.667Z,98608.98
2023-01-09T10:15:39.651Z,98610.28
2023-01-09T10:17:44.156Z,98609.6
2023-01-09T10:19:48.524Z,98606.42
2023-01-09T10:21:52.901Z,98606.08
2023-01-09T10:23:57.314Z,98609.11
2023-01-09T10:26:01.789Z,98611.66
2023-01-09T10:28:06.258Z,98612.78
2023-01-09T10:30:10.671Z,98611.95
2023-01-09T10:32:15.005Z,98609.23
2023-01-09T10:34:19.444Z,98608.41
2023-01-09T10:36:23.785Z,98603.59
2023-01-09T10:38:28.135Z,98600.5
2023-01-09T10:40:32.651Z,98607.73
2023-01-09T10:42:37.004Z,98602.12
2023-01-09T10:44:41.355Z,98602.29
2023-01-09T10:46:45.874Z,98598.28
2023-01-09T10:48:50.389Z,98594.32
2023-01-09T10:50:54.723Z,98590.97
2023-01-09T10:52:59.100Z,98587.03
2023-01-09T10:55:03.475Z,98593
2023-01-09T10:57:07.845Z,98593.69
2023-01-09T10:59:12.222Z,98599.08
2023-01-09T11:01:16.850Z,98600.4
2023-01-09T11:03:21.463Z,98597.91
2023-01-09T11:05:27.196Z,98595.36
2023-01-09T11:07:33.468Z,98594.63
2023-01-09T11:09:37.939Z,98594.16
2023-01-09T11:11:42.298Z,98593.44
2023-01-09T11:13:46.665Z,98593.04
2023-01-09T11:15:51.045Z,98592.24
2023-01-09T11:17:55.509Z,98592.91
2023-01-09T11:19:59.861Z,98586.95
2023-01-09T11:22:04.185Z,98590.54
2023-01-09T11:24:08.678Z,98585.2
2023-01-09T11:26:13.033Z,98591.17
2023-01-09T11:28:17.396Z,98584.8
2023-01-09T11:30:21.872Z,98583.89
2023-01-09T11:32:26.313Z,98582.48
2023-01-09T11:34:30.712Z,98577.14
2023-01-09T11:36:35.233Z,98580.15
2023-01-09T11:38:39.812Z,98580.34
2023-01-09T11:40:44.137Z,98582.61
2023-01-09T11:42:48.448Z,98582.78
2023-01-09T11:44:52.822Z,98586.41
2023-01-09T11:46:57.338Z,98579.77
2023-01-09T11:49:01.756Z,98580.87
2023-01-09T11:51:06.207Z,98584.8
2023-01-09T11:53:10.579Z,98579.61
2023-01-09T11:55:14.947Z,98588.09
2023-01-09T11:57:19.337Z,98579.8
2023-01-09T11:59:23.728Z,98583.88
2023-01-09T12:01:28.237Z,98588.5
2023-01-09T12:03:32.648Z,98590.06
2023-01-09T12:05:37.066Z,98587.97
2023-01-09T12:07:41.540Z,98592.18
2023-01-09T12:09:45.938Z,98594.84
2023-01-09T12:11:50.363Z,98592.46
2023-01-09T12:13:54.774Z,98593.83
2023-01-09T12:15:59.345Z,98597.9
2023-01-09T12:18:03.773Z,98595.5
2023-01-09T12:20:08.214Z,98590.28
2023-01-09T12:22:12.586Z,98591.09
2023-01-09T12:24:16.979Z,98593.03
2023-01-09T12:26:21.371Z,98593.89
2023-01-09T12:28:25.728Z,98595.84
2023-01-09T12:30:30.128Z,98601.73
2023-01-09T12:32:34.455Z,98601.22
2023-01-09T12:34:38.814Z,98600.48
2023-01-09T12:36:43.299Z,98600.72
2023-01-09T12:38:47.671Z,98603.21
2023-01-09T12:40:52.119Z,98607.02
2023-01-09T12:42:56.777Z,98611.41
2023-01-09T12:45:01.128Z,98610.73
2023-01-09T12:47:05.562Z,98606
2023-01-09T12:49:10.003Z,98616.09
2023-01-09T12:51:14.367Z,98617.33
2023-01-09T12:53:19.038Z,98617.48
2023-01-09T12:55:23.414Z,98620.28
2023-01-09T12:57:27.774Z,98629.33
2023-01-09T12:59:32.171Z,98632.08
2023-01-09T13:01:38.692Z,98631.84
2023-01-09T13:03:43.139Z,98637.87
2023-01-09T13:05:47.590Z,98641.3
2023-01-09T13:07:51.932Z,98642.55
2023-01-09T13:09:56.271Z,98647.83
2023-01-09T13:12:00.642Z,98650.57
2023-01-09T13:14:04.964Z,98647.44
2023-01-09T13:16:09.616Z,98652.91
2023-01-09T13:18:14.675Z,98653.19
2023-01-09T13:20:19.497Z,98652.16
2023-01-09T13:22:23.960Z,98663.05
2023-01-09T13:24:28.341Z,98655.18
2023-01-09T13:26:32.752Z,98659.03
2023-01-09T13:28:37.118Z,98652.81
2023-01-09T13:30:41.591Z,98654.38
2023-01-09T13:32:45.958Z,98662.86
2023-01-09T13:34:50.459Z,98669.44
2023-01-09T13:36:54.991Z,98676.89
2023-01-09T13:38:59.538Z,98675.34
2023-01-09T13:41:03.948Z,98676.16
2023-01-09T13:43:08.496Z,98671.76
2023-01-09T13:45:12.905Z,98678.54
2023-01-09T13:47:17.259Z,98681.5
2023-01-09T13:49:21.655Z,98687.13
2023-01-09T13:51:26.009Z,98687.52
2023-01-09T13:53:32.446Z,98696.66
2023-01-09T13:55:37.224Z,98701.36
2023-01-09T13:57:41.573Z,98708.16
2023-01-09T13:59:45.968Z,98721.16
2023-01-09T14:01:50.422Z,98717.5
2023-01-09T14:03:54.946Z,98716.02
2023-01-09T14:05:59.283Z,98716.36
2023-01-09T14:08:03.756Z,98717.55
2023-01-09T14:10:08.139Z,98722.91
2023-01-09T14:12:12.570Z,98726.94
2023-01-09T14:14:16.992Z,98729.67
2023-01-09T14:16:21.792Z,98735.73
2023-01-09T14:18:26.216Z,98737.12
2023-01-09T14:20:30.567Z,98740.47
2023-01-09T14:22:51.209Z,98745.78
2023-01-09T14:27:27.094Z,98754.3
2023-01-09T14:29:31.641Z,98753.2
2023-01-09T14:31:36.184Z,98756.25
2023-01-09T14:33:40.655Z,98767.64
2023-01-09T14:35:45.024Z,98777.5
2023-01-09T14:37:49.598Z,98783.49
2023-01-09T14:39:53.991Z,98785.74
2023-01-09T14:41:58.447Z,98782.35
2023-01-09T14:44:02.797Z,98789.98
2023-01-09T14:46:07.349Z,98794.95
2023-01-09T14:48:11.784Z,98802.38
2023-01-09T14:50:16.172Z,98809.31
2023-01-09T14:52:20.766Z,98810.52
2023-01-09T14:54:25.247Z,98811.23
2023-01-09T14:56:29.650Z,98804.19
2023-01-09T14:58:34.049Z,98801.14
2023-01-09T15:00:38.544Z,98805.39
2023-01-09T15:02:42.999Z,98800.5
2023-01-09T15:04:47.337Z,98803.02
2023-01-09T15:06:51.834Z,98808.55
2023-01-09T15:08:56.241Z,98811.55
2023-01-09T15:11:00.601Z,98822.64
2023-01-09T15:13:04.972Z,98828.22
2023-01-09T15:15:09.344Z,98830.45
2023-01-09T15:17:13.684Z,98840.14
2023-01-09T15:19:18.104Z,98844.84
2023-01-09T15:21:22.543Z,98848.39
2023-01-09T15:23:26.954Z,98841.22
2023-01-09T15:25:40.947Z,98833.3
2023-01-09T15:27:45.401Z,98843.5
2023-01-09T15:29:49.823Z,98843.05
2023-01-09T15:31:54.450Z,98850.92
2023-01-09T15:33:58.926Z,98853.86
2023-01-09T15:36:03.608Z,98855.78
2023-01-09T15:38:07.988Z,98859.77
2023-01-09T15:40:12.339Z,98865.47
2023-01-09T15:42:16.707Z,98868.61
2023-01-09T15:44:21.180Z,98864.13
2023-01-09T15:46:25.551Z,98856.61
2023-01-09T15:48:29.911Z,98865.5
2023-01-09T15:50:34.292Z,98864.79
2023-01-09T15:52:38.652Z,98867.77
2023-01-09T15:54:43.077Z,98866.73
2023-01-09T15:56:47.430Z,98860.48
2023-01-09T15:58:51.834Z,98852.91
2023-01-09T16:00:56.267Z,98857.15
2023-01-09T16:03:00.791Z,98857.38
2023-01-09T16:05:05.228Z,98860.36
2023-01-09T16:07:09.688Z,98865.44
2023-01-09T16:09:14.169Z,98864.13
2023-01-09T16:11:18.683Z,98858.59
2023-01-09T16:13:23.016Z,98867.37
2023-01-09T16:15:27.471Z,98866.8
2023-01-09T16:17:31.810Z,98863.72
2023-01-09T16:19:36.227Z,98870.63
2023-01-09T16:21:40.644Z,98872.67
2023-01-09T16:23:45.159Z,98882.34
2023-01-09T16:25:49.576Z,98890.83
2023-01-09T16:27:54.031Z,98897.33
2023-01-09T16:29:59.924Z,98895.77
2023-01-09T16:32:04.633Z,98902.55
2023-01-09T16:34:09.202Z,98905.19
2023-01-09T16:36:13.564Z,98912.53
2023-01-09T16:38:17.947Z,98909.73
2023-01-09T16:40:22.356Z,98913.84
2023-01-09T16:42:26.827Z,98925.06
2023-01-09T16:44:31.287Z,98927.46
2023-01-09T16:46:35.674Z,98918.8
2023-01-09T16:48:40.039Z,98925.56
2023-01-09T16:50:44.441Z,98930.58
2023-01-09T16:52:48.886Z,98932.4
2023-01-09T16:54:53.227Z,98940.21
2023-01-09T16:56:57.622Z,98943.06
2023-01-09T16:59:02.061Z,98946.18
2023-01-09T17:01:06.652Z,98950.36
2023-01-09T17:03:11.160Z,98956.43
2023-01-09T17:05:15.557Z,98963.91
2023-01-09T17:07:20.060Z,98965.22
2023-01-09T17:09:27.786Z,98965.66
2023-01-09T17:11:32.481Z,98963.34
2023-01-09T17:13:36.981Z,98964.81
2023-01-09T17:15:41.357Z,98968.64
2023-01-09T17:17:45.744Z,98968.72
2023-01-09T17:19:50.253Z,98967.69
2023-01-09T17:21:54.729Z,98980.92
2023-01-09T17:23:59.187Z,98988.56
2023-01-09T17:26:03.615Z,98991.7
2023-01-09T17:28:08.044Z,98987.16
2023-01-09T17:30:20.303Z,99000.45
2023-01-09T17:32:24.899Z,98998.2
2023-01-09T17:34:29.272Z,98989.45
2023-01-09T17:36:33.832Z,98995.91
2023-01-09T17:38:38.368Z,99004.48
2023-01-09T17:40:42.737Z,99000.23
2023-01-09T17:42:47.225Z,98999
2023-01-09T17:44:51.575Z,99000.19
2023-01-09T17:46:55.940Z,99004.55
2023-01-09T17:49:00.486Z,99009.05
2023-01-09T17:51:04.842Z,99008.69
2023-01-09T17:53:09.174Z,99006.23
2023-01-09T17:55:13.577Z,99006.26
2023-01-09T17:57:18.093Z,99006.61
2023-01-09T17:59:22.487Z,99012.97
2023-01-09T18:01:27.060Z,99016.86
2023-01-09T18:03:31.625Z,99004.63
2023-01-09T18:05:35.985Z,99003.09
2023-01-09T18:07:40.570Z,99006.91
2023-01-09T18:09:44.972Z,99009.48
2023-01-09T18:11:49.421Z,99005.2
2023-01-09T18:13:53.977Z,99019.22
2023-01-09T18:15:58.505Z,99022.46
2023-01-09T18:18:02.921Z,99027.41
2023-01-09T18:20:07.307Z,99026.58
2023-01-09T18:22:11.748Z,99023.45
2023-01-09T18:24:16.172Z,99021.66
2023-01-09T18:26:20.673Z,99022.66
2023-01-09T18:28:25.169Z,99016.64
2023-01-09T18:30:29.586Z,99016.22
2023-01-09T18:32:34.052Z,99024.15
2023-01-09T18:34:38.441Z,99029.38
2023-01-09T18:36:43.094Z,99026.6
2023-01-09T18:38:47.682Z,99027.95
2023-01-09T18:40:52.080Z,99023.56
2023-01-09T18:42:56.530Z,99022.23
2023-01-09T18:45:00.996Z,99022.8
2023-01-09T18:47:05.364Z,99028.66
2023-01-09T18:49:09.744Z,99032.78
2023-01-09T18:51:14.174Z,99048.36
2023-01-09T18:53:18.581Z,99046.64
2023-01-09T18:55:22.971Z,99045.19
2023-01-09T18:57:27.441Z,99051.25
2023-01-09T18:59:31.972Z,99052.91
2023-01-09T19:01:36.477Z,99054.95
2023-01-09T19:03:41.190Z,99051.59
2023-01-09T19:05:45.833Z,99047.59
2023-01-09T19:07:50.191Z,99050.28
2023-01-09T19:09:54.621Z,99055.55
2023-01-09T19:11:59.124Z,99053.53
2023-01-09T19:14:03.585Z,99054.63
2023-01-09T19:16:08.093Z,99058
2023-01-09T19:18:12.592Z,99056.73
2023-01-09T19:20:16.972Z,99061.62
2023-01-09T19:22:21.398Z,99070.06
2023-01-09T19:24:25.844Z,99073.95
2023-01-09T19:26:30.370Z,99076.46
2023-01-09T19:28:34.883Z,99073.88
2023-01-09T19:30:39.274Z,99087.75
2023-01-09T19:32:43.748Z,99089.59
2023-01-09T19:34:48.227Z,99081.9
2023-01-09T19:36:52.798Z,99081.12
2023-01-09T19:38:57.382Z,99079.94
2023-01-09T19:41:01.797Z,99085.6
2023-01-09T19:43:06.243Z,99086.7
2023-01-09T19:45:10.719Z,99092.34
2023-01-09T19:47:15.199Z,99100.91
2023-01-09T19:49:19.570Z,99100.33
2023-01-09T19:51:23.966Z,99106.84
2023-01-09T19:53:28.414Z,99107.59
2023-01-09T19:55:32.844Z,99115.19
2023-01-09T19:57:37.247Z,99110.67
2023-01-09T19:59:41.885Z,99113.42
2023-01-09T20:01:46.271Z,99113.77
2023-01-09T20:03:50.676Z,99112.47
2023-01-09T20:05:55.104Z,99114.53
2023-01-09T20:07:59.588Z,99118.49
2023-01-09T20:10:04.048Z,99122
2023-01-09T20:12:08.444Z,99122.31
2023-01-09T20:14:12.871Z,99122.88
2023-01-09T20:16:17.383Z,99124.77
2023-01-09T20:18:21.867Z,99127.09
2023-01-09T20:20:26.286Z,99127.39
2023-01-09T20:22:30.723Z,99125.77
2023-01-09T20:24:35.119Z,99135.24
2023-01-09T20:26:39.536Z,99137.81
2023-01-09T20:28:43.916Z,99141.76
2023-01-09T20:30:48.375Z,99148.27
2023-01-09T20:32:52.801Z,99152.83
2023-01-09T20:34:57.229Z,99157.62
2023-01-09T20:37:01.771Z,99162
2023-01-09T20:39:06.275Z,99170.63
2023-01-09T20:41:10.646Z,99173.13
2023-01-09T20:43:15.008Z,99178.21
2023-01-09T20:45:19.426Z,99172.23
2023-01-09T20:47:23.920Z,99182.61
2023-01-09T20:49:28.375Z,99179.39
2023-01-09T20:51:32.756Z,99181.45
2023-01-09T20:53:37.137Z,99183.69
2023-01-09T20:55:41.544Z,99179.36
2023-01-09T20:57:45.933Z,99180.09
2023-01-09T20:59:50.283Z,99182.61
2023-01-09T21:01:54.715Z,99186.25
2023-01-09T21:03:59.352Z,99185.23
2023-01-09T21:06:03.914Z,99184.81
2023-01-09T21:08:08.311Z,99184.05
2023-01-09T21:10:12.675Z,99182.34
2023-01-09T21:12:17.048Z,99185.91
2023-01-09T21:14:21.415Z,99182.38
2023-01-09T21:16:26.107Z,99186.86
2023-01-09T21:18:30.544Z,99181.73
2023-01-09T21:20:34.945Z,99183.51
2023-01-09T21:22:39.323Z,99192.78
2023-01-09T21:24:43.715Z,99194.53
2023-01-09T21:26:48.119Z,99201.87
2023-01-09T21:28:52.469Z,99205.13
2023-01-09T21:30:56.835Z,99209.05
2023-01-09T21:33:01.230Z,99214.72
2023-01-09T21:35:05.576Z,99221.75
2023-01-09T21:37:10.107Z,99219.23
2023-01-09T21:39:14.614Z,99227.81
2023-01-09T21:41:19.117Z,99230.73
2023-01-09T21:43:23.543Z,99238.11
2023-01-09T21:45:28.166Z,99240.17
2023-01-09T21:47:32.759Z,99243.02
2023-01-09T21:49:37.322Z,99247.02
2023-01-09T21:51:41.697Z,99252.56
2023-01-09T21:53:46.078Z,99256.48
2023-01-09T21:55:50.408Z,99257.71
2023-01-09T21:57:55.997Z,99262.1
2023-01-09T22:00:00.452Z,99263.67
2023-01-09T22:02:04.948Z,99266.08
2023-01-09T22:04:09.610Z,99269.16
2023-01-09T22:06:14.220Z,99270.21
2023-01-09T22:08:18.591Z,99269.41
2023-01-09T22:10:23.059Z,99265.46
2023-01-09T22:12:27.593Z,99269.2
2023-01-09T22:14:32.095Z,99272.56
2023-01-09T22:16:36.561Z,99275.23
2023-01-09T22:18:41.174Z,99276.7
2023-01-09T22:20:45.528Z,99279.67
2023-01-09T22:22:49.912Z,99279.84
2023-01-09T22:24:54.438Z,99283.89
2023-01-09T22:26:58.809Z,99289.31
2023-01-09T22:29:03.250Z,99289.05
2023-01-09T22:31:07.882Z,99294.42
2023-01-09T22:33:12.260Z,99298.3
2023-01-09T22:35:16.773Z,99301.52
2023-01-09T22:37:21.213Z,99300.88
2023-01-09T22:39:25.684Z,99298.52
2023-01-09T22:41:30.163Z,99304.11
2023-01-09T22:43:34.520Z,99304.38
2023-01-09T22:45:39.190Z,99303.02
2023-01-09T22:47:43.989Z,99305.43
2023-01-09T22:49:54.058Z,99306.96
2023-01-09T22:51:58.486Z,99308.41
2023-01-09T22:54:02.822Z,99309.7
2023-01-09T22:56:07.180Z,99308.66
2023-01-09T22:58:11.623Z,99305.97
2023-01-09T23:00:15.999Z,99309.69
2023-01-09T23:02:20.580Z,99312.23
2023-01-09T23:04:25.103Z,99318.45
2023-01-09T23:06:29.497Z,99319.48
2023-01-09T23:08:33.975Z,99320.39
2023-01-09T23:10:38.471Z,99321.05
2023-01-09T23:12:42.843Z,99321.76
2023-01-09T23:14:47.229Z,99325.7
2023-01-09T23:16:51.762Z,99329.22
2023-01-09T23:18:56.252Z,99322.88
2023-01-09T23:21:00.622Z,99324.53
2023-01-09T23:23:04.990Z,99326.16
2023-01-09T23:25:09.312Z,99322.14
2023-01-09T23:27:13.662Z,99330.09
2023-01-09T23:29:18.021Z,99331.02
2023-01-09T23:31:22.520Z,99329.83
2023-01-09T23:33:26.914Z,99331.89
2023-01-09T23:35:31.278Z,99330.25
2023-01-09T23:37:35.664Z,99329.83
2023-01-09T23:39:40.014Z,99335.93
2023-01-09T23:41:44.439Z,99337.4
2023-01-09T23:43:48.813Z,99336.42
2023-01-09T23:45:53.405Z,99335.57
2023-01-09T23:47:57.880Z,99338.19
2023-01-09T23:50:02.242Z,99340.03
2023-01-09T23:52:06.643Z,99342.05
2023-01-09T23:54:11.020Z,99343.77
2023-01-09T23:56:15.394Z,99345.07
2023-01-09T23:58:19.772Z,99344.16
